Latest Weather Observations for King Island Airport

IDT60801

Issued at 9:02 pm EDT Thursday 18 December 2014 (issued every 30 minutes, with the page automatically refreshed every 10 minutes)

About weather observations | Map of weather stations | Latest weather observations for TAS | Other Formats
Station Details ID: 098017 Name: KING ISLAND AIRPORT Lat: -39.88 Lon: 143.88 Height: 37.0 m
Data from the previous 72 hours. | See also: Recent months at King Island Airport
Date/Time
EDT
Temp
°C
App
Temp
°C
Dew
Point
Rel
Hum
%
Delta-T
°C
Wind Press
QNH
hPa
Press
MSL
hPa
Rain
since 9 am
mm
Dir
 
Spd
km/h
Gust
km/h
Spd
kts
Gust
kts
18/09:00pm 13.4 8.0 8.0 70 2.7 SW 26 33 14 18 1010.9 1010.8 4.4
18/08:30pm 13.9 7.6 7.2 64 3.3 WSW 30 41 16 22 1010.6 1010.5 4.4
18/08:00pm 14.2 8.0 7.7 65 3.2 WSW 30 41 16 22 1010.1 1010.0 4.4
18/07:30pm 15.0 8.4 7.8 62 3.6 WSW 32 43 17 23 1009.4 1009.4 4.4
18/07:00pm 15.3 8.8 8.8 65 3.3 WSW 33 46 18 25 1008.8 1008.8 4.4
18/06:48pm 15.4 8.9 8.2 62 3.6 WSW 32 50 17 27 1008.6 1008.6 4.4
18/06:30pm 15.6 9.3 9.1 65 3.3 WSW 32 43 17 23 1008.3 1008.3 4.4
18/06:00pm 16.1 9.0 8.1 59 4.1 WSW 35 50 19 27 1007.8 1007.8 4.4
18/05:30pm 16.3 10.3 10.2 67 3.2 W 32 41 17 22 1007.4 1007.4 4.4
18/05:00pm 15.0 10.2 10.4 74 2.4 WSW 26 37 14 20 1007.1 1007.1 4.4
18/04:30pm 15.4 10.5 10.0 70 2.8 W 26 35 14 19 1006.7 1006.7 4.4
18/04:09pm 14.5 8.1 8.5 67 3.0 WSW 32 50 17 27 1006.6 1006.6 4.4
18/04:00pm 15.2 8.3 8.7 65 3.3 WSW 35 50 19 27 1006.4 1006.4 4.4
18/03:41pm 16.1 11.2 11.3 73 2.6 W 28 46 15 25 1005.9 1005.9 4.4
18/03:30pm 16.2 11.6 11.2 72 2.7 WNW 26 33 14 18 1005.8 1005.8 4.4
18/03:00pm 14.3 9.9 11.6 84 1.5 WNW 26 37 14 20 1005.7 1005.7 4.4
18/02:30pm 16.7 12.2 12.7 77 2.2 WNW 28 35 15 19 1005.3 1005.3 4.4
18/02:00pm 15.1 11.1 11.7 80 1.8 W 24 33 13 18 1005.1 1005.1 4.4
18/01:30pm 13.2 9.8 11.1 87 1.1 W 20 28 11 15 1005.1 1005.1 4.4
18/01:00pm 12.2 7.5 10.8 91 0.7 W 26 33 14 18 1005.3 1005.3 4.2
18/12:41pm 12.6 6.1 11.7 94 0.5 WNW 37 50 20 27 1005.4 1005.4 2.8
18/12:40pm 12.6 6.1 11.7 94 0.5 WNW 37 50 20 27 1005.3 1005.3 2.8
18/12:30pm 12.8 5.5 11.5 92 0.7 WNW 41 59 22 32 1005.2 1005.2 2.0
18/12:25pm 13.3 5.6 11.5 89 1.0 NW 43 59 23 32 1005.0 1005.0 1.8
18/12:23pm 13.6 5.6 11.1 85 1.3 NW 44 59 24 32 1004.8 1004.8 1.6
18/12:21pm 14.0 6.5 12.6 91 0.8 NW 44 59 24 32 1004.7 1004.7 1.4
18/12:00pm 15.7 9.9 12.8 83 1.6 NNW 35 48 19 26 1004.4 1004.4 0.0
18/11:30am 15.0 9.2 10.8 76 2.2 NNW 32 41 17 22 1004.4 1004.4 0.0
18/11:00am 15.2 8.0 9.3 68 3.1 NW 37 50 20 27 1004.5 1004.5 0.0
18/10:30am 16.7 9.5 9.1 61 3.9 NNW 37 48 20 26 1004.5 1004.5 0.0
18/10:00am 16.8 9.7 8.2 57 4.4 NNW 35 44 19 24 1004.6 1004.6 0.0
18/09:30am 16.5 10.1 9.2 62 3.8 NNW 33 39 18 21 1004.8 1004.8 0.0
18/09:00am 16.3 9.5 9.3 63 3.6 NW 35 43 19 23 1004.9 1004.9 0.0
18/08:30am 16.7 10.6 9.6 63 3.7 NNW 32 41 17 22 1004.7 1004.7 0.0
18/08:00am 16.2 10.8 9.4 64 3.5 N 28 41 15 22 1004.6 1004.6 0.0
18/07:30am 15.5 11.3 9.6 68 3.1 N 22 32 12 17 1004.4 1004.4 0.0
18/07:00am 14.5 11.9 9.5 72 2.6 N 13 22 7 12 1004.4 1004.4 0.0
18/06:30am 12.3 10.4 9.1 81 1.6 NNE 9 11 5 6 1004.2 1004.2 0.0
18/06:00am 11.7 8.3 9.1 84 1.3 NNE 17 30 9 16 1004.0 1004.1 0.0
18/05:30am 9.7 6.4 8.1 90 0.8 NE 15 17 8 9 1004.2 1004.2 0.0
18/05:00am 10.4 7.5 8.2 86 1.1 NE 13 15 7 8 1004.3 1004.3 0.0
18/04:30am 11.1 8.3 8.7 85 1.2 NE 13 15 7 8 1004.6 1004.6 0.0
18/04:00am 12.3 9.9 8.8 79 1.8 NNE 11 13 6 7 1004.8 1004.8 0.0
18/03:30am 11.2 8.5 8.8 85 1.2 NE 13 15 7 8 1005.1 1005.1 0.0
18/03:00am 11.0 8.6 8.8 86 1.1 NE 11 13 6 7 1005.5 1005.5 0.0
18/02:30am 10.6 8.9 8.5 87 1.0 NE 7 11 4 6 1005.7 1005.7 0.0
18/02:00am 10.1 8.5 7.9 86 1.1 ENE 6 7 3 4 1006.1 1006.1 0.0
18/01:30am 9.1 8.4 7.1 87 0.9 CALM 0 0 0 0 1006.3 1006.3 0.0
18/01:00am 9.1 8.0 7.1 87 0.9 NNE 2 6 1 3 1006.5 1006.5 0.0
18/12:30am 8.9 6.9 6.9 87 0.9 NE 7 9 4 5 1006.7 1006.7 0.0
18/12:00am 8.7 6.6 6.7 87 0.9 NE 7 9 4 5 1006.9 1006.9 0.0
 
Date/Time
EDT
Temp
°C
App
Temp
°C
Dew
Point
Rel
Hum
%
Delta-T
°C
Wind Press
QNH
hPa
Press
MSL
hPa
Rain
since 9 am
mm
Dir
 
Spd
km/h
Gust
km/h
Spd
kts
Gust
kts
17/11:30pm 8.9 6.8 6.7 86 1.0 NE 7 9 4 5 1007.1 1007.1 0.0
17/11:00pm 8.5 6.0 6.5 87 0.9 ENE 9 9 5 5 1007.4 1007.4 0.0
17/10:30pm 10.7 10.0 7.0 78 1.8 CALM 0 0 0 0 1007.6 1007.6 0.0
17/10:00pm 11.5 10.8 7.0 74 2.2 CALM 0 0 0 0 1007.7 1007.7 0.0
17/09:30pm 12.9 9.8 7.1 68 2.8 WNW 13 15 7 8 1007.8 1007.8 0.0
17/09:00pm 13.2 10.5 7.2 67 2.9 WNW 11 13 6 7 1007.9 1007.9 0.0
17/08:30pm 14.3 11.2 7.1 62 3.5 WNW 13 19 7 10 1008.0 1008.0 0.0
17/08:00pm 14.7 10.7 6.8 59 3.9 WNW 17 24 9 13 1008.1 1008.1 0.0
17/07:30pm 15.2 11.2 6.7 57 4.2 WNW 17 22 9 12 1007.8 1007.8 0.0
17/07:00pm 15.3 11.5 7.6 60 3.8 WNW 17 26 9 14 1007.7 1007.7 0.0
17/06:30pm 15.9 11.7 7.4 57 4.2 NW 19 30 10 16 1007.6 1007.6 0.0
17/06:00pm 15.5 11.2 7.8 60 3.9 NW 20 26 11 14 1007.6 1007.6 0.0
17/05:30pm 16.2 11.9 7.9 58 4.2 WNW 20 28 11 15 1008.0 1008.0 0.0
17/05:00pm 16.6 11.8 7.5 55 4.6 WNW 22 30 12 16 1008.1 1008.1 0.0
17/04:30pm 15.2 9.8 8.0 62 3.6 NW 26 35 14 19 1008.2 1008.2 0.0
17/04:00pm 16.4 10.9 7.6 56 4.4 WNW 26 35 14 19 1008.2 1008.2 0.0
17/03:30pm 16.4 11.2 7.1 54 4.6 WNW 24 32 13 17 1008.4 1008.4 0.0
17/03:00pm 15.9 11.3 6.3 53 4.7 WNW 20 30 11 16 1008.5 1008.5 0.0
17/02:30pm 15.7 10.3 6.2 53 4.6 W 24 32 13 17 1008.6 1008.6 0.0
17/02:00pm 17.2 11.7 6.1 48 5.4 WNW 24 32 13 17 1008.5 1008.5 0.0
17/01:30pm 16.8 10.4 5.4 47 5.5 WNW 28 37 15 20 1008.8 1008.8 0.0
17/01:00pm 16.0 9.6 5.3 49 5.1 W 28 35 15 19 1008.7 1008.7 0.0
17/12:30pm 16.3 10.6 4.7 46 5.5 W 24 32 13 17 1008.6 1008.6 0.0
17/12:00pm 16.2 11.0 7.4 56 4.4 W 24 33 13 18 1008.4 1008.4 0.0
17/11:30am 16.2 10.6 7.2 55 4.5 W 26 35 14 19 1008.3 1008.3 0.0
17/11:00am 15.6 10.1 5.8 52 4.7 W 24 32 13 17 1008.2 1008.2 0.0
17/10:30am 15.4 10.1 6.7 56 4.3 W 24 33 13 18 1008.2 1008.2 0.0
17/10:00am 15.3 9.1 6.1 54 4.5 W 28 37 15 20 1007.9 1007.9 0.0
17/09:30am 14.5 8.7 6.1 57 4.0 WSW 26 35 14 19 1007.9 1007.9 0.0
17/09:00am 14.7 9.1 5.5 54 4.4 W 24 33 13 18 1007.7 1007.7 3.8
17/08:30am 14.4 9.0 6.3 58 3.9 WSW 24 32 13 17 1007.4 1007.4 3.8
17/08:00am 13.6 8.8 5.7 59 3.7 W 20 30 11 16 1006.9 1006.9 3.8
17/07:30am 13.8 7.7 4.7 54 4.2 WSW 26 35 14 19 1006.4 1006.4 3.8
17/07:00am 12.9 8.0 5.3 60 3.6 WSW 20 30 11 16 1006.0 1006.0 3.8
17/06:30am 12.9 7.9 6.3 64 3.1 WSW 22 32 12 17 1005.7 1005.7 3.8
17/06:00am 12.6 7.0 5.3 61 3.4 SW 24 32 13 17 1005.2 1005.2 3.8
17/05:30am 12.0 7.4 5.4 64 3.1 WSW 19 28 10 15 1005.0 1005.0 3.8
17/05:00am 12.1 5.8 3.9 57 3.7 WSW 26 37 14 20 1004.5 1004.5 3.8
17/04:30am 12.2 6.5 5.1 62 3.3 WSW 24 35 13 19 1004.1 1004.1 3.8
17/04:00am 12.3 5.8 4.8 60 3.5 SW 28 39 15 21 1003.9 1003.9 3.8
17/03:30am 12.4 6.2 6.0 65 3.0 SW 28 37 15 20 1003.7 1003.7 3.8
17/03:00am 12.7 6.9 6.3 65 3.1 WSW 26 39 14 21 1003.6 1003.6 3.8
17/02:30am 12.5 5.4 6.3 66 2.9 WSW 33 44 18 24 1003.4 1003.4 3.8
17/02:18am 12.5 6.0 6.3 66 2.9 SW 30 48 16 26 1003.4 1003.4 3.8
17/02:00am 12.4 4.0 5.8 64 3.1 SW 39 54 21 29 1003.2 1003.2 3.8
17/01:38am 12.8 6.3 6.4 65 3.1 WSW 30 48 16 26 1003.1 1003.1 3.8
17/01:30am 12.7 5.8 7.4 70 2.6 WSW 33 44 18 24 1003.1 1003.1 3.8
17/01:00am 12.6 5.9 7.5 71 2.5 WSW 32 46 17 25 1002.9 1002.9 3.8
17/12:35am 13.1 5.6 6.5 64 3.2 WSW 35 54 19 29 1002.6 1002.6 3.8
17/12:30am 13.2 4.9 6.3 63 3.3 W 39 56 21 30 1002.7 1002.7 3.8
17/12:16am 13.3 6.3 6.9 65 3.1 WSW 33 52 18 28 1002.7 1002.7 3.8
17/12:00am 13.2 6.5 7.2 67 2.9 WSW 32 48 17 26 1002.6 1002.6 3.8
 
Date/Time
EDT
Temp
°C
App
Temp
°C
Dew
Point
Rel
Hum
%
Delta-T
°C
Wind Press
QNH
hPa
Press
MSL
hPa
Rain
since 9 am
mm
Dir
 
Spd
km/h
Gust
km/h
Spd
kts
Gust
kts
16/11:42pm 13.2 6.2 6.1 62 3.4 WSW 32 50 17 27 1002.5 1002.5 3.8
16/11:30pm 13.2 5.3 6.3 63 3.3 WSW 37 52 20 28 1002.4 1002.4 3.8
16/11:19pm 13.2 5.2 5.6 60 3.6 WSW 37 57 20 31 1002.3 1002.3 3.8
16/11:00pm 13.1 5.4 7.3 68 2.8 WSW 37 50 20 27 1002.2 1002.2 3.8
16/10:30pm 13.4 4.8 6.7 64 3.2 WSW 41 59 22 32 1002.0 1002.0 3.8
16/10:00pm 13.2 6.3 7.4 68 2.8 WSW 33 52 18 28 1001.5 1001.5 3.8
16/09:30pm 13.4 5.4 7.6 68 2.8 WSW 39 57 21 31 1000.8 1000.8 3.8
16/09:00pm 13.2 5.1 7.2 67 2.9 WSW 39 57 21 31 1000.0 1000.0 3.8
16/08:30pm 13.3 5.5 9.7 79 1.8 WSW 41 61 22 33 999.3 999.3 3.8
16/08:00pm 12.6 3.2 8.7 77 2.0 W 48 76 26 41 998.3 998.3 3.8
16/07:32pm 12.8 4.3 9.4 80 1.7 WNW 44 65 24 35 997.1 997.1 3.6
16/07:30pm 12.6 4.2 9.6 82 1.5 WNW 44 61 24 33 997.2 997.2 3.6
16/07:25pm 12.0 4.5 9.4 84 1.3 W 39 61 21 33 997.2 997.2 3.6
16/07:22pm 11.9 4.9 9.8 87 1.1 W 37 61 20 33 997.3 997.3 3.6
16/07:02pm 10.6 0.8 8.5 87 1.0 WSW 50 87 27 47 997.2 997.2 2.6
16/07:00pm 10.9 0.6 8.0 82 1.4 W 52 87 28 47 997.1 997.1 2.2
16/06:54pm 13.6 3.8 6.9 64 3.2 W 48 87 26 47 996.9 996.9 1.8
16/06:30pm 15.3 7.0 9.2 67 3.1 W 43 63 23 34 995.3 995.2 1.8
16/06:00pm 14.6 6.3 9.4 71 2.7 W 43 61 23 33 994.9 994.8 1.8
16/05:57pm 13.9 4.9 8.9 72 2.5 W 46 65 25 35 994.8 994.7 1.8
16/05:53pm 13.7 3.9 8.7 72 2.5 W 50 76 27 41 994.7 994.6 1.8
16/05:32pm 16.8 5.7 8.0 56 4.5 WNW 56 80 30 43 994.2 994.1 1.8
16/05:30pm 16.8 6.6 8.5 58 4.2 WNW 52 74 28 40 994.2 994.1 1.8
16/05:29pm 16.7 6.3 7.9 56 4.4 WNW 52 74 28 40 994.2 994.1 1.8
16/05:00pm 16.0 8.0 10.5 70 2.9 W 43 63 23 34 993.9 993.8 1.8
16/04:30pm 15.2 7.2 11.2 77 2.1 WNW 44 65 24 35 993.7 993.6 1.8
16/04:19pm 15.5 9.3 12.8 84 1.5 WNW 37 56 20 30 993.4 993.3 1.8
16/04:09pm 15.7 9.0 13.5 87 1.2 WNW 41 54 22 29 993.2 993.1 1.8
16/04:00pm 14.8 7.6 13.2 90 0.9 W 43 65 23 35 993.1 993.0 1.8
16/03:53pm 14.7 6.8 12.7 88 1.1 WNW 46 65 25 35 993.1 993.0 1.8
16/03:48pm 14.9 6.6 13.8 93 0.6 WNW 50 63 27 34 993.2 993.1 1.6
16/03:30pm 14.6 4.6 12.6 88 1.1 NW 57 80 31 43 993.1 993.0 0.6
16/03:28pm 14.7 5.1 13.2 91 0.8 NW 56 80 30 43 992.9 992.8 0.6
16/03:25pm 14.6 5.0 13.3 92 0.7 NW 56 69 30 37 992.8 992.7 0.2
16/03:19pm 15.1 6.5 13.0 87 1.2 NW 50 69 27 37 992.8 992.7 0.0
16/03:00pm 16.5 9.2 12.8 79 2.1 NW 43 52 23 28 992.8 992.7 0.0
16/02:30pm 17.0 10.0 12.5 75 2.5 NW 41 57 22 31 992.9 992.8 0.0
16/02:27pm 17.1 9.6 12.8 76 2.4 NW 44 63 24 34 993.0 992.9 0.0
16/02:00pm 17.4 9.9 12.1 71 2.9 NW 43 57 23 31 993.3 993.2 0.0
16/01:30pm 17.5 11.4 11.8 69 3.1 NW 35 44 19 24 993.0 992.9 0.0
16/01:00pm 17.9 11.3 11.5 66 3.5 NW 37 46 20 25 993.4 993.3 0.0
16/12:30pm 17.9 11.4 11.7 67 3.4 WNW 37 52 20 28 993.6 993.5 0.0
16/12:00pm 18.9 12.6 13.5 71 3.1 WNW 39 48 21 26 993.5 993.4 0.0
16/11:59am 18.5 12.2 13.4 72 2.9 WNW 39 48 21 26 993.5 993.4 0.0
16/11:46am 17.9 12.5 14.0 78 2.2 NW 35 43 19 23 993.8 993.7 0.0
16/11:39am 18.2 13.3 13.7 75 2.6 NW 32 41 17 22 993.8 993.7 0.0
16/11:30am 18.1 13.4 14.2 78 2.2 NW 32 39 17 21 993.9 993.8 0.0
16/11:00am 17.8 14.7 13.5 76 2.5 WNW 22 30 12 16 994.0 993.9 0.0
16/10:35am 16.4 14.0 13.7 84 1.5 WNW 19 26 10 14 994.4 994.3 0.0
16/10:30am 15.6 13.1 13.6 88 1.1 WNW 19 24 10 13 994.5 994.4 0.0
16/10:14am 15.1 12.0 13.3 89 1.0 WNW 22 30 12 16 995.2 995.1 0.0
16/10:00am 15.5 11.7 12.3 81 1.8 WNW 24 32 13 17 995.5 995.5 0.0
16/09:48am 16.1 13.2 12.3 78 2.1 NW 19 28 10 15 995.3 995.2 0.0
16/09:30am 16.3 14.2 12.3 77 2.2 NW 15 24 8 13 994.9 994.8 0.0
16/09:00am 15.8 15.3 12.0 78 2.1 N 6 9 3 5 995.2 995.1 0.0
16/08:30am 15.7 16.0 12.3 80 1.9 E 2 11 1 6 995.1 995.0 0.0
16/08:00am 14.8 14.0 11.8 82 1.6 SSE 7 9 4 5 995.4 995.3 0.0
16/07:30am 15.2 16.0 12.7 85 1.4 CALM 0 0 0 0 995.5 995.5 0.0
16/07:00am 13.2 12.1 11.8 91 0.8 SW 9 11 5 6 996.3 996.3 0.0
16/06:30am 11.3 8.9 10.2 93 0.6 SW 13 13 7 7 996.2 996.2 0.0
16/06:00am 9.7 8.8 9.1 96 0.3 SSE 4 11 2 6 996.0 996.0 0.0
16/05:30am 9.0 7.2 7.9 93 0.5 E 7 9 4 5 996.0 996.0 0.0
16/05:00am 10.5 8.4 9.6 94 0.5 SSE 11 13 6 7 996.3 996.3 0.0
16/04:30am 11.2 10.0 10.3 94 0.5 SE 7 9 4 5 996.8 996.8 0.0
16/04:00am 10.0 8.1 9.2 95 0.4 ESE 9 11 5 6 996.7 996.7 0.0
16/03:30am 9.2 6.4 8.4 95 0.4 E 13 13 7 7 997.4 997.4 0.0
16/03:00am 9.6 7.1 8.4 92 0.6 SE 11 15 6 8 998.7 998.7 0.0
16/02:30am 10.7 8.0 9.0 89 0.8 S 13 15 7 8 999.6 999.6 0.0
16/02:00am 10.8 8.9 8.9 88 0.9 SSE 9 9 5 5 1000.3 1000.3 0.0
16/01:30am 10.0 8.5 8.3 89 0.8 SSE 6 11 3 6 1000.8 1000.8 0.0
16/01:00am 10.0 8.5 8.4 90 0.8 NNE 6 7 3 4 1001.7 1001.7 0.0
16/12:30am 10.0 7.9 8.1 88 0.9 SE 9 11 5 6 1001.4 1001.4 0.0
16/12:00am 10.2 9.9 8.5 89 0.8 CALM 0 0 0 0 1002.2 1002.2 0.0
 
Date/Time
EDT
Temp
°C
App
Temp
°C
Dew
Point
Rel
Hum
%
Delta-T
°C
Wind Press
QNH
hPa
Press
MSL
hPa
Rain
since 9 am
mm
Dir
 
Spd
km/h
Gust
km/h
Spd
kts
Gust
kts
15/11:30pm 11.2 10.1 8.6 84 1.3 SE 4 7 2 4 1002.8 1002.8 0.0
15/11:00pm 11.1 9.5 8.7 85 1.2 E 7 9 4 5 1003.1 1003.1 0.0
15/10:30pm 11.4 9.9 8.4 82 1.5 ENE 6 9 3 5 1003.8 1003.8 0.0
15/10:00pm 12.3 9.9 8.8 79 1.8 SE 11 13 6 7 1004.2 1004.2 0.0
15/09:30pm 12.7 10.0 8.8 77 2.0 SE 13 13 7 7 1004.4 1004.4 0.0

Other Formats:

Comma delimited format used in spreadsheet applications
http://www.bom.gov.au/fwo/IDT60801/IDT60801.94850.axf

JavaScript Object Notation format (JSON) in row-major order
http://www.bom.gov.au/fwo/IDT60801/IDT60801.94850.json